Skip Navigation Links Skip Navigation Links

Current Weather

Capt Walter Francis Duke Rgnl At St Mary'S, Leonardtown, Md.

For information only: do not use for flight planning or navigation.
Latest weather
Observation time Wednesday, December 2, 2020 10:35 PM EST
Local time Wednesday, December 2, 2020 10:50 PM EST
Flight conditions Visual Meteorological Conditions
Winds
Wind speed calm
Visibility 10 mi.
Sky condition
Ceiling unlimited
Sky clear
Temperature 36°F
Dewpoint 21°F
Altimeter 30.28 in.Hg
Derived measurements
Relative humidity 55%
Wind chill 36°F
Density altitude -1788 ft.
Remarks
Fully automated report.
Automated weather observing station without precipitation discriminator.
METAR K2W6 030335Z AUTO 00000KT 10SM CLR 02/M06 A3028 RMK AO1

Settings

Location code

InnerDrive.Weather 4.0.6770.0 Release CLR 4.0.30319.42000
Copyright ©2018 Inner Drive Technology. All rights reserved. Portions Copyright ©1986-2018 David Braverman.

Find weather

Site navigation


Skip Navigation Links

Place info

Page info

PayPal - The safer, easier way to pay online!

Return home.

Copyright ©2020 Inner Drive Technology. Purveyors of fine, hand-crafted computer software. Page printed 2020-12-03T03:50:16 UTC.